createdAt,value
2022-09-11T00:01:23.586Z,58.88
2022-09-11T00:03:50.412Z,65.32
2022-09-11T00:06:29.190Z,68.57
2022-09-11T00:09:01.054Z,63.30
2022-09-11T00:11:30.910Z,69.40
2022-09-11T00:13:58.464Z,56.28
2022-09-11T00:16:29.468Z,65.28
2022-09-11T00:18:58.817Z,66.88
2022-09-11T00:21:26.526Z,59.70
2022-09-11T00:23:53.512Z,63.20
2022-09-11T00:26:21.674Z,58.17
2022-09-11T00:28:50.726Z,76.50
2022-09-11T00:31:20.455Z,69.32
2022-09-11T00:33:47.804Z,59.53
2022-09-11T00:36:18.387Z,62.13
2022-09-11T00:38:46.422Z,53.85
2022-09-11T00:41:19.882Z,56.05
2022-09-11T00:44:00.168Z,67.90
2022-09-11T00:46:38.769Z,66.07
2022-09-11T00:49:33.250Z,65.70
2022-09-11T00:52:10.356Z,69.28
2022-09-11T00:54:45.300Z,64.93
2022-09-11T00:57:12.672Z,58.15
2022-09-11T00:59:43.775Z,69.13
2022-09-11T01:02:14.043Z,58.28
2022-09-11T01:04:40.931Z,56.90
2022-09-11T01:07:07.844Z,59.20
2022-09-11T01:09:34.908Z,60.22
2022-09-11T01:12:23.864Z,53.15
2022-09-11T01:15:18.338Z,51.22
2022-09-11T01:18:09.396Z,54.95
2022-09-11T01:21:20.378Z,50.10
2022-09-11T01:23:47.228Z,64.05
2022-09-11T01:26:35.692Z,52.88
2022-09-11T01:29:24.422Z,51.30
2022-09-11T01:31:57.177Z,44.53
2022-09-11T01:34:53.522Z,45.08
2022-09-11T01:37:48.087Z,51.15
2022-09-11T01:40:30.395Z,46.08
2022-09-11T01:43:06.461Z,44.40
2022-09-11T01:45:37.352Z,37.03
2022-09-11T01:48:07.823Z,42.58
2022-09-11T01:50:39.081Z,47.13
2022-09-11T01:53:07.056Z,47.78
2022-09-11T01:55:40.403Z,44.33
2022-09-11T01:58:10.925Z,45.22
2022-09-11T02:00:40.220Z,41.47
2022-09-11T02:03:16.742Z,40.45
2022-09-11T02:05:54.439Z,37.75
2022-09-11T02:08:26.222Z,36.70
2022-09-11T02:11:03.518Z,46.28
2022-09-11T02:14:12.398Z,41.97
2022-09-11T02:16:51.160Z,45.45
2022-09-11T02:19:26.859Z,38.50
2022-09-11T02:21:53.794Z,39.10
2022-09-11T02:24:22.886Z,41.35
2022-09-11T02:26:55.409Z,40.45
2022-09-11T02:29:22.663Z,37.83
2022-09-11T02:31:49.963Z,41.67
2022-09-11T02:34:20.031Z,39.95
2022-09-11T02:37:05.326Z,35.40
2022-09-11T02:39:32.068Z,40.08
2022-09-11T02:42:12.587Z,35.72
2022-09-11T02:44:49.007Z,36.33
2022-09-11T02:47:25.778Z,39.80
2022-09-11T02:50:18.614Z,37.70
2022-09-11T02:53:03.504Z,38.63
2022-09-11T02:55:48.916Z,36.28
2022-09-11T02:58:28.094Z,41.35
2022-09-11T03:01:04.707Z,30.35
2022-09-11T03:03:46.328Z,35.67
2022-09-11T03:06:22.926Z,30.40
2022-09-11T03:08:50.189Z,36.45
2022-09-11T03:11:17.837Z,35.42
2022-09-11T03:13:45.649Z,36.42
2022-09-11T03:16:12.859Z,36.22
2022-09-11T03:18:39.967Z,34.25
2022-09-11T03:21:06.987Z,33.95
2022-09-11T03:23:33.909Z,38.75
2022-09-11T03:26:00.816Z,35.88
2022-09-11T03:28:27.659Z,36.28
2022-09-11T03:30:54.581Z,31.23
2022-09-11T03:33:21.413Z,39.17
2022-09-11T03:35:48.364Z,46.80
2022-09-11T03:38:15.863Z,36.05
2022-09-11T03:40:46.655Z,33.33
2022-09-11T03:43:13.722Z,31.88
2022-09-11T03:45:40.558Z,28.17
2022-09-11T03:48:07.789Z,32.00
2022-09-11T03:50:34.863Z,27.95
2022-09-11T03:53:01.775Z,27.45
2022-09-11T03:55:28.725Z,25.90
2022-09-11T03:57:55.639Z,29.27
2022-09-11T04:00:22.474Z,26.40
2022-09-11T04:02:49.771Z,24.70
2022-09-11T04:05:17.075Z,24.55
2022-09-11T04:07:44.058Z,17.63
2022-09-11T04:10:11.006Z,18.27
2022-09-11T04:12:37.970Z,22.52
2022-09-11T04:15:05.168Z,17.42
2022-09-11T04:17:32.062Z,16.80
2022-09-11T04:19:58.921Z,16.63
2022-09-11T04:22:26.589Z,15.30
2022-09-11T04:24:53.479Z,13.60
2022-09-11T04:27:21.420Z,14.55
2022-09-11T04:29:48.241Z,14.57
2022-09-11T04:32:15.546Z,14.93
2022-09-11T04:34:42.544Z,16.10
2022-09-11T04:37:09.345Z,16.33
2022-09-11T04:39:36.254Z,17.30
2022-09-11T04:42:04.457Z,19.67
2022-09-11T04:44:32.690Z,15.43
2022-09-11T04:46:59.515Z,14.13
2022-09-11T04:49:26.435Z,14.60
2022-09-11T04:51:53.491Z,14.68
2022-09-11T04:54:21.472Z,14.15
2022-09-11T04:56:48.957Z,15.55
2022-09-11T04:59:23.506Z,17.70
2022-09-11T05:01:50.718Z,15.95
2022-09-11T05:04:21.756Z,17.75
2022-09-11T05:06:51.047Z,14.90
2022-09-11T05:09:18.971Z,21.20
2022-09-11T05:11:45.957Z,11.88
2022-09-11T05:14:12.844Z,14.35
2022-09-11T05:16:39.940Z,12.38
2022-09-11T05:19:06.985Z,13.55
2022-09-11T05:21:35.012Z,13.30
2022-09-11T05:24:03.222Z,15.20
2022-09-11T05:26:32.617Z,15.13
2022-09-11T05:29:05.870Z,15.13
2022-09-11T05:31:32.859Z,14.52
2022-09-11T05:34:00.703Z,11.82
2022-09-11T05:36:28.579Z,16.23
2022-09-11T05:38:55.381Z,11.40
2022-09-11T05:41:22.398Z,9.65
2022-09-11T05:43:49.347Z,11.80
2022-09-11T05:46:18.071Z,13.77
2022-09-11T05:48:45.681Z,11.60
2022-09-11T05:51:14.948Z,13.77
2022-09-11T05:53:42.346Z,12.57
2022-09-11T05:56:13.863Z,15.85
2022-09-11T05:58:40.675Z,12.32
2022-09-11T06:01:10.048Z,10.90
2022-09-11T06:03:38.812Z,12.50
2022-09-11T06:06:08.289Z,12.35
2022-09-11T06:08:36.305Z,14.48
2022-09-11T06:11:06.745Z,11.32
2022-09-11T06:13:42.284Z,11.95
2022-09-11T06:16:36.445Z,15.38
2022-09-11T06:19:06.003Z,11.30
2022-09-11T06:21:32.843Z,10.55
2022-09-11T06:23:59.930Z,12.10
2022-09-11T06:26:27.185Z,10.63
2022-09-11T06:28:54.594Z,9.75
2022-09-11T06:31:24.425Z,13.45
2022-09-11T06:33:51.614Z,11.13
2022-09-11T06:36:20.964Z,11.45
2022-09-11T06:38:56.974Z,12.50
2022-09-11T06:41:25.122Z,13.25
2022-09-11T06:43:53.220Z,10.02
2022-09-11T06:46:22.715Z,8.52
2022-09-11T06:48:50.890Z,11.07
2022-09-11T06:51:19.969Z,10.30
2022-09-11T06:53:47.535Z,11.70
2022-09-11T06:56:16.852Z,8.82
2022-09-11T06:58:45.355Z,6.25
2022-09-11T07:01:30.080Z,6.80
2022-09-11T07:07:39.478Z,5.07
2022-09-11T07:10:07.022Z,5.32
2022-09-11T07:12:33.968Z,5.13
2022-09-11T07:15:01.503Z,6.97
2022-09-11T07:17:28.515Z,8.20
2022-09-11T07:23:48.471Z,5.75
2022-09-11T07:26:17.736Z,6.40
2022-09-11T07:28:44.960Z,8.10
2022-09-11T07:31:11.864Z,8.23
2022-09-11T07:33:48.892Z,4.35
2022-09-11T07:36:18.886Z,5.45
2022-09-11T07:38:47.610Z,6.47
2022-09-11T07:41:16.868Z,6.75
2022-09-11T07:43:48.365Z,5.13
2022-09-11T07:46:15.513Z,7.38
2022-09-11T07:48:45.371Z,4.97
2022-09-11T07:51:14.824Z,4.70
2022-09-11T07:57:30.459Z,5.85
2022-09-11T07:59:57.319Z,7.45
2022-09-11T08:02:24.218Z,6.72
2022-09-11T08:04:51.713Z,7.82
2022-09-11T08:07:18.905Z,5.63
2022-09-11T08:09:45.751Z,6.15
2022-09-11T08:12:12.839Z,8.10
2022-09-11T08:14:39.722Z,7.32
2022-09-11T08:17:06.575Z,4.60
2022-09-11T08:19:33.449Z,6.60
2022-09-11T08:22:00.472Z,4.32
2022-09-11T08:24:27.582Z,4.30
2022-09-11T08:26:54.739Z,5.65
2022-09-11T08:29:21.602Z,3.58
2022-09-11T08:31:48.430Z,7.55
2022-09-11T08:34:15.680Z,7.88
2022-09-11T08:36:42.518Z,6.28
2022-09-11T08:39:09.897Z,6.90
2022-09-11T08:41:48.511Z,3.85
2022-09-11T08:44:24.731Z,5.35
2022-09-11T08:46:59.615Z,4.03
2022-09-11T08:49:46.267Z,5.18
2022-09-11T08:56:06.956Z,4.80
2022-09-11T08:58:46.446Z,5.15
2022-09-11T09:01:29.049Z,6.75
2022-09-11T09:04:14.768Z,4.30
2022-09-11T09:06:54.141Z,3.85
2022-09-11T09:09:42.923Z,6.07
2022-09-11T09:12:35.077Z,3.13
2022-09-11T09:15:28.664Z,5.47
2022-09-11T09:18:14.103Z,2.92
2022-09-11T09:20:45.475Z,4.70
2022-09-11T09:23:23.510Z,4.50
2022-09-11T09:25:53.255Z,5.72
2022-09-11T09:28:45.187Z,3.10
2022-09-11T09:31:17.788Z,3.80
2022-09-11T09:34:13.004Z,4.93
2022-09-11T09:36:59.576Z,3.03
2022-09-11T09:39:26.974Z,4.47
2022-09-11T09:42:11.186Z,5.05
2022-09-11T09:45:02.630Z,5.40
2022-09-11T09:47:29.863Z,4.15
2022-09-11T09:49:58.508Z,3.03
2022-09-11T09:52:43.681Z,4.15
2022-09-11T09:55:20.937Z,5.22
2022-09-11T09:57:48.320Z,6.38
2022-09-11T10:04:20.983Z,4.82
2022-09-11T10:06:50.616Z,4.63
2022-09-11T10:09:23.594Z,3.80
2022-09-11T10:12:02.940Z,4.50
2022-09-11T10:14:50.402Z,3.47
2022-09-11T10:17:22.324Z,2.83
2022-09-11T10:19:51.031Z,6.85
2022-09-11T10:22:23.346Z,6.72
2022-09-11T10:25:01.849Z,2.17
2022-09-11T10:27:35.078Z,5.18
2022-09-11T10:30:04.281Z,5.28
2022-09-11T10:32:42.597Z,6.80
2022-09-11T10:35:10.425Z,5.15
2022-09-11T10:41:29.011Z,3.22
2022-09-11T10:44:00.673Z,3.33
2022-09-11T10:46:40.437Z,3.33
2022-09-11T10:49:22.144Z,3.88
2022-09-11T10:52:19.575Z,4.70
2022-09-11T10:54:58.599Z,4.15
2022-09-11T10:57:52.099Z,5.40
2022-09-11T11:00:25.912Z,5.32
2022-09-11T11:03:12.958Z,3.63
2022-09-11T11:06:14.347Z,5.30
2022-09-11T11:08:58.813Z,5.05
2022-09-11T11:11:34.785Z,7.38
2022-09-11T11:14:25.971Z,5.80
2022-09-11T11:17:34.300Z,3.47
2022-09-11T11:20:21.798Z,5.30
2022-09-11T11:23:18.463Z,3.15
2022-09-11T11:25:48.226Z,4.80
2022-09-11T11:28:45.706Z,3.65
2022-09-11T11:31:38.049Z,6.82
2022-09-11T11:34:29.333Z,4.53
2022-09-11T11:37:11.812Z,4.40
2022-09-11T11:39:44.558Z,9.13
2022-09-11T11:42:21.547Z,3.13
2022-09-11T11:45:04.406Z,4.53
2022-09-11T11:47:38.335Z,4.57
2022-09-11T11:50:11.046Z,3.72
2022-09-11T11:53:02.395Z,3.92
2022-09-11T11:55:58.750Z,5.28
2022-09-11T11:58:51.759Z,4.43
2022-09-11T12:01:32.496Z,4.70
2022-09-11T12:04:24.920Z,4.35
2022-09-11T12:06:51.866Z,4.10
2022-09-11T12:09:19.115Z,6.13
2022-09-11T12:11:52.827Z,4.63
2022-09-11T12:14:27.861Z,8.25
2022-09-11T12:16:57.115Z,4.53
2022-09-11T12:19:25.728Z,5.18
2022-09-11T12:21:52.515Z,3.85
2022-09-11T12:24:50.460Z,4.43
2022-09-11T12:27:54.479Z,4.00
2022-09-11T12:34:17.590Z,5.57
2022-09-11T12:36:44.371Z,3.25
2022-09-11T12:39:33.141Z,5.10
2022-09-11T12:42:23.197Z,5.70
2022-09-11T12:49:22.517Z,4.10
2022-09-11T12:51:59.931Z,3.42
2022-09-11T12:54:42.584Z,5.78
2022-09-11T12:57:21.333Z,4.72
2022-09-11T12:59:55.030Z,2.92
2022-09-11T13:02:27.950Z,3.38
2022-09-11T13:04:55.283Z,4.05
2022-09-11T13:07:47.379Z,5.43
2022-09-11T13:10:43.463Z,3.67
2022-09-11T13:13:35.350Z,3.60
2022-09-11T13:16:25.679Z,4.32
2022-09-11T13:19:13.659Z,4.88
2022-09-11T13:21:41.986Z,8.95
2022-09-11T13:24:30.410Z,4.50
2022-09-11T13:27:05.982Z,3.15
2022-09-11T13:29:35.985Z,3.03
2022-09-11T13:32:15.389Z,3.33
2022-09-11T13:34:48.552Z,3.40
2022-09-11T13:37:31.257Z,4.18
2022-09-11T13:39:59.458Z,3.90
2022-09-11T13:42:26.413Z,6.03
2022-09-11T13:44:56.990Z,4.95
2022-09-11T13:47:28.633Z,4.70
2022-09-11T13:50:02.544Z,7.32
2022-09-11T13:52:34.521Z,3.50
2022-09-11T13:55:10.375Z,4.78
2022-09-11T13:57:52.102Z,12.25
2022-09-11T14:00:37.742Z,3.92
2022-09-11T14:03:16.201Z,4.82
2022-09-11T14:05:55.274Z,4.50
2022-09-11T14:12:03.495Z,5.03
2022-09-11T14:14:30.422Z,3.83
2022-09-11T14:17:01.463Z,5.53
2022-09-11T14:19:34.985Z,8.07
2022-09-11T14:22:13.480Z,5.20
2022-09-11T14:24:55.740Z,4.25
2022-09-11T14:27:38.120Z,3.83
2022-09-11T14:30:28.355Z,3.78
2022-09-11T14:33:16.187Z,5.15
2022-09-11T14:35:45.891Z,3.75
2022-09-11T14:38:14.917Z,6.35
2022-09-11T14:40:49.095Z,4.95
2022-09-11T14:43:18.807Z,5.78
2022-09-11T14:45:46.161Z,4.20
2022-09-11T14:48:13.357Z,3.13
2022-09-11T14:50:41.195Z,4.45
2022-09-11T14:53:18.308Z,4.65
2022-09-11T14:55:45.329Z,3.90
2022-09-11T14:58:12.162Z,2.95
2022-09-11T15:00:39.108Z,5.68
2022-09-11T15:03:05.997Z,3.55
2022-09-11T15:05:33.906Z,5.40
2022-09-11T15:08:01.224Z,5.07
2022-09-11T15:10:28.052Z,6.55
2022-09-11T15:12:55.699Z,4.95
2022-09-11T15:15:22.822Z,4.55
2022-09-11T15:17:49.684Z,4.07
2022-09-11T15:20:16.628Z,5.47
2022-09-11T15:22:44.473Z,7.20
2022-09-11T15:25:11.470Z,6.45
2022-09-11T15:27:38.273Z,7.47
2022-09-11T15:30:05.783Z,4.13
2022-09-11T15:32:32.674Z,4.03
2022-09-11T15:34:59.610Z,5.20
2022-09-11T15:37:26.639Z,3.95
2022-09-11T15:39:53.559Z,8.80
2022-09-11T15:42:20.570Z,5.60
2022-09-11T15:44:48.080Z,4.22
2022-09-11T15:47:14.927Z,4.78
2022-09-11T15:49:44.596Z,3.95
2022-09-11T15:52:11.702Z,4.15
2022-09-11T15:54:38.634Z,4.60
2022-09-11T15:57:05.645Z,3.78
2022-09-11T15:59:32.877Z,4.88
2022-09-11T16:02:00.519Z,5.13
2022-09-11T16:04:31.737Z,3.17
2022-09-11T16:06:59.017Z,4.82
2022-09-11T16:09:28.727Z,3.25
2022-09-11T16:11:56.467Z,5.63
2022-09-11T16:14:32.923Z,3.60
2022-09-11T16:17:02.053Z,5.95
2022-09-11T16:19:29.898Z,4.53
2022-09-11T16:21:58.848Z,4.60
2022-09-11T16:24:28.301Z,4.88
2022-09-11T16:26:56.094Z,5.55
2022-09-11T16:29:24.709Z,5.50
2022-09-11T16:31:51.579Z,3.67
2022-09-11T16:34:18.608Z,6.05
2022-09-11T16:36:46.205Z,6.13
2022-09-11T16:39:16.488Z,4.95
2022-09-11T16:41:43.774Z,4.53
2022-09-11T16:44:13.423Z,4.43
2022-09-11T16:46:43.554Z,3.92
2022-09-11T16:49:15.654Z,5.45
2022-09-11T16:51:43.694Z,4.32
2022-09-11T16:54:10.893Z,5.47
2022-09-11T16:56:40.598Z,8.43
2022-09-11T16:59:11.004Z,5.47
2022-09-11T17:01:38.968Z,6.00
2022-09-11T17:04:05.997Z,5.70
2022-09-11T17:06:33.002Z,5.85
2022-09-11T17:09:01.523Z,6.03
2022-09-11T17:11:30.158Z,5.90
2022-09-11T17:13:57.489Z,5.20
2022-09-11T17:16:28.215Z,7.28
2022-09-11T17:18:56.766Z,4.70
2022-09-11T17:21:24.698Z,5.40
2022-09-11T17:23:54.217Z,8.00
2022-09-11T17:26:22.242Z,5.97
2022-09-11T17:28:51.313Z,3.92
2022-09-11T17:31:19.581Z,10.85
2022-09-11T17:33:47.739Z,4.60
2022-09-11T17:36:17.401Z,7.20
2022-09-11T17:38:46.430Z,4.90
2022-09-11T17:41:13.326Z,5.93
2022-09-11T17:43:40.732Z,5.93
2022-09-11T17:46:13.712Z,5.85
2022-09-11T17:48:41.397Z,5.15
2022-09-11T17:51:15.306Z,5.47
2022-09-11T17:53:44.782Z,4.93
2022-09-11T17:56:14.796Z,6.30
2022-09-11T17:58:44.040Z,7.30
2022-09-11T18:01:16.905Z,4.28
2022-09-11T18:03:44.321Z,5.18
2022-09-11T18:06:36.393Z,7.43
2022-09-11T18:09:13.829Z,5.22
2022-09-11T18:11:43.216Z,6.45
2022-09-11T18:14:11.528Z,5.20
2022-09-11T18:16:38.669Z,3.90
2022-09-11T18:19:06.391Z,5.95
2022-09-11T18:21:38.108Z,5.35
2022-09-11T18:24:06.523Z,6.43
2022-09-11T18:26:39.489Z,6.15
2022-09-11T18:29:12.440Z,6.78
2022-09-11T18:31:42.095Z,4.47
2022-09-11T18:34:16.843Z,4.85
2022-09-11T18:36:43.904Z,5.63
2022-09-11T18:39:11.926Z,10.07
2022-09-11T18:41:39.200Z,7.22
2022-09-11T18:47:54.552Z,6.18
2022-09-11T18:50:23.195Z,6.40
2022-09-11T18:52:51.526Z,4.43
2022-09-11T18:55:22.957Z,4.55
2022-09-11T19:01:32.585Z,6.60
2022-09-11T19:04:00.217Z,6.60
2022-09-11T19:10:14.934Z,5.65
2022-09-11T19:12:41.853Z,6.32
2022-09-11T19:15:09.768Z,6.60
2022-09-11T19:17:38.258Z,4.97
2022-09-11T19:20:08.927Z,5.50
2022-09-11T19:22:35.983Z,6.15
2022-09-11T19:25:03.068Z,5.88
2022-09-11T19:27:31.795Z,5.32
2022-09-11T19:29:59.937Z,7.25
2022-09-11T19:32:28.191Z,6.07
2022-09-11T19:34:55.332Z,6.97
2022-09-11T19:37:23.188Z,4.50
2022-09-11T19:39:51.931Z,5.15
2022-09-11T19:42:19.413Z,5.55
2022-09-11T19:44:46.368Z,6.40
2022-09-11T19:47:13.201Z,5.53
2022-09-11T19:49:40.034Z,7.03
2022-09-11T19:52:08.230Z,5.38
2022-09-11T19:54:35.522Z,4.47
2022-09-11T19:57:02.695Z,4.68
2022-09-11T19:59:29.527Z,5.15
2022-09-11T20:01:56.792Z,5.18
2022-09-11T20:04:23.927Z,7.78
2022-09-11T20:09:30.962Z,4.32
2022-09-11T20:12:00.630Z,5.63
2022-09-11T20:14:28.001Z,4.65
2022-09-11T20:16:54.821Z,7.40
2022-09-11T20:19:21.871Z,5.65
2022-09-11T20:21:48.720Z,4.03
2022-09-11T20:24:15.682Z,4.28
2022-09-11T20:26:42.637Z,7.03
2022-09-11T20:29:14.082Z,6.30
2022-09-11T20:31:47.838Z,6.15
2022-09-11T20:36:46.359Z,7.50
2022-09-11T20:39:14.175Z,4.63
2022-09-11T20:41:41.142Z,7.97
2022-09-11T20:44:08.109Z,4.72
2022-09-11T20:46:35.019Z,3.35
2022-09-11T20:49:03.183Z,5.57
2022-09-11T20:51:30.065Z,7.35
2022-09-11T20:53:57.257Z,8.45
2022-09-11T20:56:24.200Z,4.63
2022-09-11T20:58:51.912Z,3.85
2022-09-11T21:01:23.691Z,5.55
2022-09-11T21:03:53.468Z,5.03
2022-09-11T21:06:26.166Z,5.22
2022-09-11T21:08:55.714Z,8.07
2022-09-11T21:11:24.018Z,6.05
2022-09-11T21:13:50.921Z,3.85
2022-09-11T21:16:19.851Z,4.57
2022-09-11T21:18:49.378Z,3.92
2022-09-11T21:21:16.375Z,4.28
2022-09-11T21:23:43.472Z,3.83
2022-09-11T21:26:12.070Z,3.72
2022-09-11T21:28:39.064Z,7.72
2022-09-11T21:31:06.364Z,5.13
2022-09-11T21:33:34.487Z,3.67
2022-09-11T21:36:02.107Z,3.72
2022-09-11T21:38:29.696Z,5.78
2022-09-11T21:40:58.060Z,4.45
2022-09-11T21:43:25.730Z,3.88
2022-09-11T21:45:52.712Z,6.75
2022-09-11T21:48:20.127Z,6.50
2022-09-11T21:50:47.078Z,5.45
2022-09-11T21:53:14.113Z,3.47
2022-09-11T21:55:45.227Z,3.70
2022-09-11T21:58:18.333Z,3.60
2022-09-11T22:00:47.723Z,8.30
2022-09-11T22:03:17.178Z,3.92
2022-09-11T22:05:46.495Z,4.53
2022-09-11T22:08:16.059Z,5.55
2022-09-11T22:10:48.433Z,5.60
2022-09-11T22:13:16.480Z,6.38
2022-09-11T22:15:45.791Z,5.25
2022-09-11T22:18:13.333Z,5.32
2022-09-11T22:20:41.365Z,6.05
2022-09-11T22:23:13.429Z,3.67
2022-09-11T22:25:40.945Z,4.28
2022-09-11T22:28:08.183Z,6.43
2022-09-11T22:30:35.122Z,4.20
2022-09-11T22:33:01.987Z,7.50
2022-09-11T22:35:29.023Z,5.95
2022-09-11T22:37:55.903Z,3.90
2022-09-11T22:40:22.795Z,3.58
2022-09-11T22:42:50.085Z,4.43
2022-09-11T22:45:17.200Z,3.75
2022-09-11T22:47:44.003Z,5.43
2022-09-11T22:50:11.023Z,6.22
2022-09-11T22:52:37.938Z,13.73
2022-09-11T22:55:06.185Z,4.53
2022-09-11T22:57:35.378Z,4.68
2022-09-11T23:00:05.165Z,4.15
2022-09-11T23:02:32.077Z,3.80
2022-09-11T23:05:17.357Z,4.93
2022-09-11T23:07:44.966Z,4.07
2022-09-11T23:10:13.604Z,2.97
2022-09-11T23:12:41.022Z,4.45
2022-09-11T23:15:08.395Z,5.03
2022-09-11T23:17:35.242Z,6.20
2022-09-11T23:20:02.660Z,4.32
2022-09-11T23:22:29.566Z,3.65
2022-09-11T23:24:56.415Z,3.92
2022-09-11T23:27:23.224Z,4.68
2022-09-11T23:29:50.175Z,3.30
2022-09-11T23:32:17.037Z,4.40
2022-09-11T23:34:43.848Z,4.10
2022-09-11T23:37:10.677Z,4.50
2022-09-11T23:39:37.502Z,6.38
2022-09-11T23:42:04.525Z,4.03
2022-09-11T23:44:31.489Z,3.85
2022-09-11T23:47:00.583Z,4.57
2022-09-11T23:49:27.435Z,3.67
2022-09-11T23:51:54.303Z,2.78
2022-09-11T23:54:21.229Z,3.50
2022-09-11T23:56:48.185Z,3.97
2022-09-11T23:59:15.140Z,4.97
